< < Back
Terminal Aerodrome Forecast


Current Version              Previous Versions:   1  2  3  4  5  6  7  8  9  

Terminal Aerodrome Forecast

758
FTUS44 KMOB 240500 RRA
TAFPNS
TAF
KPNS 240541Z 2406/2506 25004KT P6SM SKC
     FM241400 22007KT P6SM VCTS SCT050CB OVC100=

Latest METAR

238
SAUS70 KWBC 240600 RRL
MTRPNS
METAR KPNS 240553Z AUTO 00000KT 10SM CLR 23/22 A3000 RMK AO2 SLP159
T02330222 10267 20233 402940228 58006


USA.gov is the U.S. government's official web portal to all federal, state and local government web resources and services.